createdAt,value
2018-07-09T00:00:56.393Z,4.30
2018-07-09T00:03:25.143Z,4.13
2018-07-09T00:05:53.429Z,4.10
2018-07-09T00:08:21.449Z,3.97
2018-07-09T00:10:54.013Z,4.00
2018-07-09T00:13:23.220Z,4.10
2018-07-09T00:15:50.741Z,4.27
2018-07-09T00:18:18.204Z,4.90
2018-07-09T00:20:45.586Z,5.10
2018-07-09T00:23:13.732Z,4.30
2018-07-09T00:25:41.157Z,3.60
2018-07-09T00:28:08.485Z,4.60
2018-07-09T00:30:35.863Z,4.70
2018-07-09T00:33:03.268Z,4.53
2018-07-09T00:35:30.622Z,4.10
2018-07-09T00:37:58.034Z,5.97
2018-07-09T00:40:25.382Z,4.90
2018-07-09T00:42:52.739Z,5.30
2018-07-09T00:45:20.190Z,4.53
2018-07-09T00:47:47.634Z,4.93
2018-07-09T00:50:14.979Z,4.63
2018-07-09T00:52:43.067Z,5.33
2018-07-09T00:55:11.654Z,4.97
2018-07-09T00:57:38.993Z,5.07
2018-07-09T01:00:06.330Z,5.10
2018-07-09T01:02:33.694Z,5.53
2018-07-09T01:05:01.033Z,5.70
2018-07-09T01:07:28.410Z,6.30
2018-07-09T01:09:55.826Z,5.50
2018-07-09T01:12:24.285Z,6.17
2018-07-09T01:14:51.635Z,6.20
2018-07-09T01:17:18.989Z,6.60
2018-07-09T01:19:46.349Z,5.80
2018-07-09T01:22:13.777Z,6.50
2018-07-09T01:24:41.349Z,6.60
2018-07-09T01:27:08.716Z,5.90
2018-07-09T01:29:36.047Z,7.00
2018-07-09T01:32:03.399Z,6.27
2018-07-09T01:34:30.789Z,6.93
2018-07-09T01:36:58.185Z,6.90
2018-07-09T01:39:25.648Z,8.00
2018-07-09T01:41:53.102Z,7.07
2018-07-09T01:44:20.638Z,6.60
2018-07-09T01:46:48.057Z,7.07
2018-07-09T01:49:15.441Z,7.33
2018-07-09T01:51:42.878Z,7.60
2018-07-09T01:54:10.417Z,8.30
2018-07-09T01:56:37.790Z,7.70
2018-07-09T01:59:05.169Z,7.27
2018-07-09T02:01:32.529Z,7.57
2018-07-09T02:03:59.935Z,7.03
2018-07-09T02:06:27.380Z,8.23
2018-07-09T02:08:54.742Z,8.30
2018-07-09T02:11:22.169Z,8.20
2018-07-09T02:13:49.517Z,8.77
2018-07-09T02:16:16.992Z,7.80
2018-07-09T02:18:45.387Z,8.07
2018-07-09T02:21:12.870Z,8.20
2018-07-09T02:23:40.299Z,8.90
2018-07-09T02:26:07.663Z,8.40
2018-07-09T02:28:35.050Z,7.67
2018-07-09T02:31:02.494Z,8.80
2018-07-09T02:33:29.846Z,8.67
2018-07-09T02:35:57.213Z,9.90
2018-07-09T02:38:24.613Z,9.87
2018-07-09T02:40:52.097Z,9.63
2018-07-09T02:43:19.535Z,9.20
2018-07-09T02:45:46.916Z,8.87
2018-07-09T02:48:14.244Z,9.03
2018-07-09T02:50:41.578Z,10.50
2018-07-09T02:53:08.979Z,9.97
2018-07-09T02:55:36.390Z,9.73
2018-07-09T02:58:03.851Z,10.97
2018-07-09T03:00:32.257Z,9.13
2018-07-09T03:02:59.677Z,10.23
2018-07-09T03:05:28.179Z,10.00
2018-07-09T03:07:55.580Z,10.33
2018-07-09T03:10:22.925Z,9.90
2018-07-09T03:12:50.291Z,10.90
2018-07-09T03:15:17.642Z,11.10
2018-07-09T03:17:45.052Z,10.00
2018-07-09T03:20:12.450Z,10.47
2018-07-09T03:22:39.858Z,10.33
2018-07-09T03:25:07.235Z,10.87
2018-07-09T03:27:34.629Z,12.43
2018-07-09T03:30:02.114Z,11.40
2018-07-09T03:32:29.531Z,10.53
2018-07-09T03:34:56.909Z,10.87
2018-07-09T03:37:24.285Z,11.10
2018-07-09T03:39:51.610Z,11.77
2018-07-09T03:42:19.037Z,11.10
2018-07-09T03:44:46.470Z,11.60
2018-07-09T03:47:14.046Z,12.17
2018-07-09T03:49:41.452Z,11.27
2018-07-09T03:52:08.917Z,12.50
2018-07-09T03:54:36.413Z,12.47
2018-07-09T03:57:03.857Z,12.33
2018-07-09T03:59:31.391Z,11.70
2018-07-09T04:01:58.767Z,11.50
2018-07-09T04:04:26.134Z,12.23
2018-07-09T04:06:53.522Z,12.27
2018-07-09T04:09:20.969Z,12.10
2018-07-09T04:11:48.537Z,11.90
2018-07-09T04:14:15.953Z,11.00
2018-07-09T04:16:43.489Z,11.70
2018-07-09T04:19:10.930Z,12.80
2018-07-09T04:21:38.438Z,12.23
2018-07-09T04:24:06.022Z,11.60
2018-07-09T04:26:33.668Z,12.53
2018-07-09T04:29:01.056Z,11.90
2018-07-09T04:31:28.454Z,12.00
2018-07-09T04:33:55.874Z,12.27
2018-07-09T04:36:23.289Z,12.30
2018-07-09T04:38:50.737Z,11.70
2018-07-09T04:41:18.061Z,12.70
2018-07-09T04:43:45.405Z,12.27
2018-07-09T04:46:12.889Z,12.93
2018-07-09T04:48:40.266Z,13.40
2018-07-09T04:51:07.754Z,11.73
2018-07-09T04:53:35.437Z,12.10
2018-07-09T04:56:02.750Z,12.67
2018-07-09T04:58:30.089Z,12.23
2018-07-09T05:00:57.450Z,13.70
2018-07-09T05:03:25.107Z,14.17
2018-07-09T05:05:52.484Z,13.90
2018-07-09T05:08:19.868Z,15.00
2018-07-09T05:10:47.345Z,13.80
2018-07-09T05:13:14.790Z,14.03
2018-07-09T05:15:42.456Z,14.80
2018-07-09T05:18:09.844Z,14.03
2018-07-09T05:21:40.744Z,14.87
2018-07-09T05:24:08.241Z,12.27
2018-07-09T05:26:35.793Z,13.10
2018-07-09T05:29:03.279Z,15.00
2018-07-09T05:31:30.679Z,14.00
2018-07-09T05:33:58.061Z,14.40
2018-07-09T05:36:25.404Z,13.30
2018-07-09T05:38:52.833Z,13.53
2018-07-09T05:41:20.268Z,13.20
2018-07-09T05:43:47.750Z,14.07
2018-07-09T05:46:15.230Z,13.00
2018-07-09T05:48:43.599Z,12.77
2018-07-09T05:51:10.934Z,13.13
2018-07-09T05:53:38.435Z,11.97
2018-07-09T05:56:05.802Z,10.03
2018-07-09T05:58:33.339Z,8.97
2018-07-09T06:01:00.766Z,10.10
2018-07-09T06:03:28.214Z,10.70
2018-07-09T06:05:55.543Z,10.10
2018-07-09T06:08:22.928Z,9.80
2018-07-09T06:10:50.306Z,9.43
2018-07-09T06:13:17.663Z,8.50
2018-07-09T06:15:45.049Z,8.60
2018-07-09T06:18:12.415Z,8.10
2018-07-09T06:20:39.800Z,7.90
2018-07-09T06:23:07.257Z,8.20
2018-07-09T06:25:34.723Z,7.70
2018-07-09T06:28:02.011Z,7.53
2018-07-09T06:30:29.446Z,7.87
2018-07-09T06:32:56.817Z,6.50
2018-07-09T06:35:24.170Z,7.10
2018-07-09T06:37:51.562Z,6.37
2018-07-09T06:40:18.891Z,6.53
2018-07-09T06:42:46.286Z,5.80
2018-07-09T06:45:13.729Z,5.63
2018-07-09T06:47:41.124Z,5.77
2018-07-09T06:50:08.502Z,5.77
2018-07-09T06:52:35.901Z,5.53
2018-07-09T06:55:03.328Z,5.43
2018-07-09T06:57:30.713Z,5.77
2018-07-09T06:59:58.071Z,4.97
2018-07-09T07:02:25.565Z,5.47
2018-07-09T07:04:52.840Z,4.93
2018-07-09T07:07:20.274Z,4.50
2018-07-09T07:09:47.745Z,4.97
2018-07-09T07:12:15.074Z,4.70
2018-07-09T07:14:42.459Z,4.60
2018-07-09T07:17:09.831Z,4.83
2018-07-09T07:19:37.213Z,4.17
2018-07-09T07:22:04.601Z,4.23
2018-07-09T07:24:31.953Z,4.30
2018-07-09T07:26:59.339Z,4.20
2018-07-09T07:29:26.701Z,4.03
2018-07-09T07:31:54.183Z,4.30
2018-07-09T07:34:21.723Z,4.83
2018-07-09T07:36:49.100Z,5.13
2018-07-09T07:39:16.481Z,4.30
2018-07-09T07:41:44.609Z,4.90
2018-07-09T07:44:12.038Z,5.20
2018-07-09T07:46:39.431Z,4.50
2018-07-09T07:49:06.922Z,4.90
2018-07-09T07:51:34.271Z,5.43
2018-07-09T07:54:01.610Z,5.20
2018-07-09T07:56:29.071Z,5.70
2018-07-09T08:00:25.973Z,5.50
2018-07-09T08:02:53.327Z,5.33
2018-07-09T08:05:20.693Z,5.40
2018-07-09T08:07:48.058Z,5.77
2018-07-09T08:10:15.385Z,5.20
2018-07-09T08:15:10.101Z,4.80
2018-07-09T08:17:37.462Z,6.00
2018-07-09T08:20:06.028Z,5.97
2018-07-09T08:22:33.370Z,6.03
2018-07-09T08:25:00.839Z,6.30
2018-07-09T08:27:28.127Z,5.70
2018-07-09T08:29:55.463Z,5.50
2018-07-09T08:32:22.825Z,5.80
2018-07-09T08:34:50.171Z,6.43
2018-07-09T08:37:17.522Z,5.73
2018-07-09T08:39:44.856Z,5.30
2018-07-09T08:42:12.225Z,5.77
2018-07-09T08:44:40.150Z,6.67
2018-07-09T08:47:07.501Z,5.60
2018-07-09T08:49:34.818Z,5.33
2018-07-09T08:52:02.160Z,4.77
2018-07-09T08:54:29.563Z,5.40
2018-07-09T08:56:56.971Z,4.80
2018-07-09T08:59:24.708Z,5.20
2018-07-09T09:01:52.110Z,5.43
2018-07-09T09:04:19.501Z,5.60
2018-07-09T09:06:46.849Z,5.63
2018-07-09T09:09:14.257Z,5.30
2018-07-09T09:11:41.687Z,5.40
2018-07-09T09:14:09.113Z,5.80
2018-07-09T09:16:36.644Z,5.70
2018-07-09T09:19:04.010Z,6.33
2018-07-09T09:21:31.344Z,6.93
2018-07-09T09:23:58.769Z,6.77
2018-07-09T09:26:26.151Z,6.40
2018-07-09T09:28:53.521Z,6.50
2018-07-09T09:31:21.108Z,6.80
2018-07-09T09:33:48.394Z,7.30
2018-07-09T09:36:15.784Z,7.70
2018-07-09T09:39:46.149Z,7.43
2018-07-09T09:42:13.485Z,7.37
2018-07-09T09:44:40.853Z,8.30
2018-07-09T09:47:08.201Z,7.40
2018-07-09T09:49:35.526Z,6.90
2018-07-09T09:52:02.870Z,7.00
2018-07-09T09:54:30.225Z,6.20
2018-07-09T09:56:57.566Z,6.20
2018-07-09T09:59:24.928Z,6.10
2018-07-09T10:01:52.508Z,5.27
2018-07-09T10:04:19.829Z,5.80
2018-07-09T10:06:47.170Z,6.17
2018-07-09T10:09:14.572Z,6.73
2018-07-09T10:11:41.904Z,6.27
2018-07-09T10:14:09.248Z,5.20
2018-07-09T10:16:36.594Z,5.70
2018-07-09T10:19:03.986Z,6.17
2018-07-09T10:21:33.338Z,6.50
2018-07-09T10:24:00.695Z,6.40
2018-07-09T10:26:28.014Z,6.90
2018-07-09T10:28:55.351Z,6.83
2018-07-09T10:31:22.685Z,5.60
2018-07-09T10:33:50.152Z,6.07
2018-07-09T10:36:17.495Z,5.80
2018-07-09T10:38:44.943Z,6.23
2018-07-09T10:41:12.310Z,5.87
2018-07-09T10:43:40.086Z,5.43
2018-07-09T10:46:07.678Z,5.70
2018-07-09T10:48:35.004Z,5.67
2018-07-09T10:51:02.349Z,5.37
2018-07-09T10:53:30.039Z,4.50
2018-07-09T10:55:57.415Z,5.10
2018-07-09T10:58:24.794Z,5.50
2018-07-09T11:00:52.195Z,5.47
2018-07-09T11:03:19.676Z,5.80
2018-07-09T11:05:47.271Z,6.13
2018-07-09T11:08:14.858Z,5.33
2018-07-09T11:10:42.311Z,4.47
2018-07-09T11:13:09.656Z,4.70
2018-07-09T11:15:37.033Z,5.30
2018-07-09T11:18:04.388Z,5.27
2018-07-09T11:20:31.731Z,5.73
2018-07-09T11:22:59.093Z,4.90
2018-07-09T11:25:26.484Z,5.57
2018-07-09T11:27:54.417Z,4.90
2018-07-09T11:30:21.786Z,5.00
2018-07-09T11:32:49.133Z,3.90
2018-07-09T11:35:16.553Z,3.73
2018-07-09T11:37:43.924Z,4.03
2018-07-09T11:40:11.334Z,3.03
2018-07-09T11:42:38.733Z,2.53
2018-07-09T11:45:06.230Z,2.40
2018-07-09T11:47:33.585Z,2.87
2018-07-09T11:50:01.018Z,2.47
2018-07-09T11:52:28.366Z,2.50
2018-07-09T11:54:55.791Z,2.60
2018-07-09T11:57:23.202Z,2.60
2018-07-09T11:59:50.581Z,2.70
2018-07-09T12:02:17.945Z,2.70
2018-07-09T12:04:45.426Z,2.70
2018-07-09T12:07:12.773Z,3.20
2018-07-09T12:09:40.136Z,2.63
2018-07-09T12:12:07.565Z,2.77
2018-07-09T12:14:34.990Z,3.17
2018-07-09T12:17:02.386Z,2.83
2018-07-09T12:19:29.736Z,2.90
2018-07-09T12:21:57.133Z,3.67
2018-07-09T12:24:25.118Z,3.27
2018-07-09T12:26:52.616Z,3.20
2018-07-09T12:29:19.975Z,3.70
2018-07-09T12:31:47.317Z,3.33
2018-07-09T12:34:14.810Z,3.40
2018-07-09T12:36:42.202Z,3.07
2018-07-09T12:39:09.615Z,3.03
2018-07-09T12:41:37.135Z,2.83
2018-07-09T12:44:04.525Z,3.07
2018-07-09T12:46:31.932Z,3.10
2018-07-09T12:49:00.342Z,2.77
2018-07-09T12:51:27.690Z,2.47
2018-07-09T12:53:55.240Z,2.20
2018-07-09T12:56:22.638Z,2.33
2018-07-09T12:58:50.014Z,2.40
2018-07-09T13:01:18.193Z,1.93
2018-07-09T13:03:45.591Z,2.30
2018-07-09T13:06:12.993Z,2.20
2018-07-09T13:08:41.404Z,2.00
2018-07-09T13:11:08.759Z,2.07
2018-07-09T13:13:36.181Z,2.40
2018-07-09T13:16:03.532Z,2.03
2018-07-09T13:18:30.996Z,1.63
2018-07-09T13:21:04.337Z,2.03
2018-07-09T13:23:31.725Z,2.10
2018-07-09T13:25:59.095Z,2.03
2018-07-09T13:28:26.823Z,2.37
2018-07-09T13:30:54.247Z,1.73
2018-07-09T13:33:21.595Z,1.73
2018-07-09T13:35:48.944Z,2.30
2018-07-09T13:38:16.320Z,1.93
2018-07-09T13:40:43.704Z,2.00
2018-07-09T13:43:11.086Z,1.77
2018-07-09T13:45:38.447Z,1.50
2018-07-09T13:48:05.866Z,1.30
2018-07-09T13:50:33.420Z,2.07
2018-07-09T13:53:00.794Z,1.60
2018-07-09T13:55:28.703Z,1.50
2018-07-09T13:57:56.070Z,1.00
2018-07-09T14:44:03.751Z,2.20
2018-07-09T14:46:31.116Z,1.40
2018-07-09T14:50:28.012Z,1.70
2018-07-09T14:52:55.437Z,1.83
2018-07-09T14:55:22.779Z,1.70
2018-07-09T14:57:50.113Z,1.97
2018-07-09T15:00:17.474Z,1.30
2018-07-09T15:02:44.845Z,2.07
2018-07-09T15:05:12.216Z,2.27
2018-07-09T15:07:39.585Z,1.93
2018-07-09T15:10:07.023Z,2.17
2018-07-09T15:12:34.385Z,2.37
2018-07-09T15:15:01.776Z,2.10
2018-07-09T15:17:29.198Z,2.00
2018-07-09T15:19:56.573Z,2.33
2018-07-09T15:22:23.942Z,1.43
2018-07-09T15:24:51.338Z,1.73
2018-07-09T15:27:18.693Z,1.80
2018-07-09T15:29:46.092Z,2.17
2018-07-09T15:32:14.609Z,3.57
2018-07-09T15:34:41.989Z,2.63
2018-07-09T15:37:09.485Z,2.00
2018-07-09T15:39:36.935Z,2.03
2018-07-09T15:42:04.321Z,2.40
2018-07-09T15:44:31.738Z,2.40
2018-07-09T15:46:59.169Z,2.07
2018-07-09T15:49:26.586Z,2.83
2018-07-09T15:51:54.046Z,1.90
2018-07-09T15:54:21.464Z,2.20
2018-07-09T15:56:48.785Z,2.03
2018-07-09T15:59:16.150Z,2.47
2018-07-09T16:01:43.660Z,2.23
2018-07-09T16:04:11.045Z,2.50
2018-07-09T16:06:38.473Z,2.10
2018-07-09T16:09:06.148Z,2.43
2018-07-09T16:11:33.669Z,1.67
2018-07-09T16:14:01.058Z,2.20
2018-07-09T16:16:28.420Z,2.40
2018-07-09T16:18:55.762Z,2.03
2018-07-09T16:21:23.122Z,2.20
2018-07-09T16:23:50.459Z,2.00
2018-07-09T16:26:17.857Z,2.10
2018-07-09T16:28:45.226Z,2.40
2018-07-09T16:31:12.599Z,2.23
2018-07-09T16:33:39.957Z,1.90
2018-07-09T16:36:07.340Z,1.57
2018-07-09T16:38:34.727Z,2.83
2018-07-09T16:41:02.126Z,2.07
2018-07-09T16:43:29.525Z,2.50
2018-07-09T16:45:56.898Z,2.27
2018-07-09T16:48:24.475Z,2.50
2018-07-09T16:50:51.900Z,2.17
2018-07-09T16:53:19.745Z,2.33
2018-07-09T16:55:47.139Z,1.77
2018-07-09T16:58:14.503Z,2.30
2018-07-09T17:00:42.002Z,2.70
2018-07-09T17:03:10.049Z,2.50
2018-07-09T17:05:37.617Z,2.40
2018-07-09T17:08:05.109Z,2.20
2018-07-09T17:10:32.461Z,2.27
2018-07-09T17:12:59.829Z,2.23
2018-07-09T17:15:27.202Z,2.53
2018-07-09T17:17:54.664Z,2.30
2018-07-09T17:20:22.123Z,2.20
2018-07-09T17:22:49.466Z,2.30
2018-07-09T17:25:16.809Z,2.20
2018-07-09T17:27:44.218Z,2.10
2018-07-09T17:30:11.546Z,2.33
2018-07-09T17:32:38.910Z,2.10
2018-07-09T17:35:06.415Z,2.57
2018-07-09T17:37:34.017Z,2.57
2018-07-09T17:40:01.439Z,2.30
2018-07-09T17:42:28.836Z,2.97
2018-07-09T17:44:56.190Z,3.20
2018-07-09T17:48:26.904Z,2.40
2018-07-09T17:50:54.330Z,2.87
2018-07-09T17:53:21.689Z,2.40
2018-07-09T17:55:49.046Z,2.90
2018-07-09T17:58:16.379Z,2.53
2018-07-09T18:00:44.654Z,2.43
2018-07-09T18:03:12.045Z,3.33
2018-07-09T18:05:39.397Z,2.70
2018-07-09T18:08:06.829Z,2.87
2018-07-09T18:10:34.223Z,3.50
2018-07-09T18:13:01.568Z,2.73
2018-07-09T18:15:28.934Z,4.00
2018-07-09T18:17:56.361Z,2.50
2018-07-09T18:20:25.208Z,2.00
2018-07-09T18:22:52.712Z,2.20
2018-07-09T18:25:20.199Z,2.33
2018-07-09T18:27:47.532Z,2.50
2018-07-09T18:30:14.876Z,1.93
2018-07-09T18:32:42.279Z,2.07
2018-07-09T18:35:09.643Z,2.00
2018-07-09T18:37:37.166Z,2.00
2018-07-09T18:40:04.562Z,1.80
2018-07-09T18:42:31.932Z,2.20
2018-07-09T18:44:59.289Z,2.30
2018-07-09T18:47:27.005Z,2.60
2018-07-09T18:49:54.348Z,1.83
2018-07-09T18:52:21.821Z,2.03
2018-07-09T18:54:49.321Z,2.17
2018-07-09T18:57:16.756Z,2.00
2018-07-09T18:59:44.140Z,2.57
2018-07-09T19:02:11.579Z,2.00
2018-07-09T19:04:38.978Z,2.50
2018-07-09T19:07:08.069Z,2.67
2018-07-09T19:09:36.249Z,2.57
2018-07-09T19:12:04.519Z,2.23
2018-07-09T19:14:36.513Z,2.53
2018-07-09T19:18:13.518Z,2.63
2018-07-09T19:21:16.755Z,2.43
2018-07-09T19:23:43.618Z,3.50
2018-07-09T19:26:14.113Z,2.63
2018-07-09T19:28:41.022Z,2.60
2018-07-09T19:31:07.855Z,2.40
2018-07-09T19:33:34.703Z,2.77
2018-07-09T19:36:01.554Z,3.23
2018-07-09T19:38:28.531Z,3.27
2018-07-09T19:40:55.378Z,2.23
2018-07-09T19:43:22.345Z,2.60
2018-07-09T19:45:49.354Z,2.30
2018-07-09T19:48:16.173Z,2.00
2018-07-09T19:50:43.039Z,2.77
2018-07-09T19:53:09.882Z,2.30
2018-07-09T19:55:36.754Z,2.07
2018-07-09T19:58:04.350Z,2.60
2018-07-09T20:00:32.242Z,2.87
2018-07-09T20:02:59.081Z,2.33
2018-07-09T20:05:25.981Z,2.50
2018-07-09T20:07:52.834Z,2.50
2018-07-09T20:10:25.213Z,2.00
2018-07-09T20:12:57.835Z,2.70
2018-07-09T20:15:30.444Z,2.90
2018-07-09T20:17:57.292Z,2.10
2018-07-09T20:20:24.126Z,2.33
2018-07-09T20:22:51.066Z,2.23
2018-07-09T20:25:18.437Z,2.57
2018-07-09T20:27:45.290Z,3.17
2018-07-09T20:30:12.393Z,2.90
2018-07-09T20:32:39.274Z,2.27
2018-07-09T20:35:08.213Z,2.90
2018-07-09T20:37:35.743Z,2.43
2018-07-09T20:40:02.609Z,2.20
2018-07-09T20:42:29.465Z,2.10
2018-07-09T20:44:56.321Z,2.30
2018-07-09T20:47:23.189Z,1.90
2018-07-09T20:49:50.065Z,2.67
2018-07-09T20:52:16.949Z,2.60
2018-07-09T20:54:43.869Z,2.20
2018-07-09T20:57:11.017Z,2.30
2018-07-09T20:59:37.888Z,2.60
2018-07-09T21:02:04.774Z,2.67
2018-07-09T21:04:32.102Z,2.50
2018-07-09T21:07:00.218Z,2.23
2018-07-09T21:09:28.018Z,1.90
2018-07-09T21:11:55.543Z,2.57
2018-07-09T21:14:22.389Z,2.60
2018-07-09T21:16:49.288Z,2.37
2018-07-09T21:19:16.214Z,2.10
2018-07-09T21:21:43.111Z,2.70
2018-07-09T21:24:10.064Z,2.20
2018-07-09T21:26:37.028Z,2.03
2018-07-09T21:29:04.011Z,2.53
2018-07-09T21:31:30.914Z,2.57
2018-07-09T21:33:58.382Z,2.70
2018-07-09T21:36:25.406Z,2.20
2018-07-09T21:38:52.285Z,2.93
2018-07-09T21:41:19.237Z,3.10
2018-07-09T21:43:46.123Z,2.33
2018-07-09T21:46:13.070Z,2.30
2018-07-09T21:48:39.996Z,2.87
2018-07-09T21:51:06.825Z,2.37
2018-07-09T21:53:33.699Z,2.40
2018-07-09T21:56:00.621Z,2.33
2018-07-09T21:58:27.884Z,2.57
2018-07-09T22:00:54.729Z,2.03
2018-07-09T22:03:21.670Z,2.50
2018-07-09T22:05:48.544Z,2.13
2018-07-09T22:08:15.659Z,2.67
2018-07-09T22:10:42.538Z,2.57
2018-07-09T22:13:09.447Z,2.10
2018-07-09T22:15:36.355Z,2.80
2018-07-09T22:18:03.264Z,2.47
2018-07-09T22:20:30.157Z,3.43
2018-07-09T22:22:57.105Z,2.40
2018-07-09T22:25:24.006Z,2.90
2018-07-09T22:27:50.952Z,2.43
2018-07-09T22:30:24.007Z,3.03
2018-07-09T22:32:51.335Z,2.70
2018-07-09T22:35:18.835Z,2.30
2018-07-09T22:37:46.230Z,2.30
2018-07-09T22:40:13.587Z,2.00
2018-07-09T22:42:41.094Z,2.67
2018-07-09T22:45:08.881Z,2.57
2018-07-09T22:47:36.327Z,2.20
2018-07-09T22:50:03.729Z,2.40
2018-07-09T22:52:31.144Z,2.70
2018-07-09T22:55:04.274Z,2.70
2018-07-09T22:57:31.743Z,2.50
2018-07-09T22:59:59.192Z,2.23
2018-07-09T23:02:26.885Z,2.90
2018-07-09T23:04:54.545Z,2.20
2018-07-09T23:07:22.324Z,2.50
2018-07-09T23:10:06.693Z,2.40
2018-07-09T23:12:40.086Z,2.10
2018-07-09T23:15:17.262Z,2.67
2018-07-09T23:17:50.678Z,2.73
2018-07-09T23:20:23.864Z,2.50
2018-07-09T23:22:50.884Z,2.37
2018-07-09T23:25:17.991Z,2.33
2018-07-09T23:27:44.985Z,2.73
2018-07-09T23:30:11.975Z,2.63
2018-07-09T23:32:38.909Z,3.23
2018-07-09T23:35:05.772Z,2.80
2018-07-09T23:37:32.630Z,3.47
2018-07-09T23:39:59.477Z,2.63
2018-07-09T23:42:26.337Z,2.43
2018-07-09T23:44:53.189Z,2.90
2018-07-09T23:47:20.075Z,2.33
2018-07-09T23:49:47.033Z,2.10
2018-07-09T23:52:13.969Z,2.07
2018-07-09T23:54:40.834Z,2.10
2018-07-09T23:57:13.957Z,2.10
2018-07-09T23:59:48.009Z,2.50
